createdAt,value
2018-07-16T00:00:27.807Z,3.33
2018-07-16T00:02:56.541Z,5.43
2018-07-16T00:05:25.283Z,3.30
2018-07-16T00:07:53.975Z,2.90
2018-07-16T00:10:22.804Z,4.10
2018-07-16T00:12:51.456Z,3.23
2018-07-16T00:15:20.129Z,3.80
2018-07-16T00:17:48.844Z,7.83
2018-07-16T00:20:17.499Z,2.93
2018-07-16T00:22:46.255Z,2.90
2018-07-16T00:25:14.903Z,4.27
2018-07-16T00:27:43.534Z,3.63
2018-07-16T00:30:12.210Z,3.60
2018-07-16T00:32:40.947Z,3.40
2018-07-16T00:35:09.659Z,4.37
2018-07-16T00:37:38.323Z,3.40
2018-07-16T00:40:07.091Z,3.50
2018-07-16T00:42:35.820Z,5.20
2018-07-16T00:45:04.551Z,3.10
2018-07-16T00:47:33.208Z,3.60
2018-07-16T00:50:01.903Z,4.00
2018-07-16T00:52:30.606Z,4.00
2018-07-16T00:54:58.943Z,4.73
2018-07-16T00:57:27.612Z,3.50
2018-07-16T00:59:56.336Z,6.33
2018-07-16T01:02:24.982Z,3.60
2018-07-16T01:04:53.654Z,3.33
2018-07-16T01:07:22.286Z,4.40
2018-07-16T01:09:50.943Z,4.53
2018-07-16T01:12:19.655Z,5.50
2018-07-16T01:14:55.074Z,4.13
2018-07-16T01:17:23.754Z,4.10
2018-07-16T01:19:52.423Z,4.03
2018-07-16T01:22:21.116Z,3.30
2018-07-16T01:24:49.804Z,3.63
2018-07-16T01:27:18.456Z,3.83
2018-07-16T01:29:47.108Z,3.73
2018-07-16T01:32:15.829Z,3.93
2018-07-16T01:34:44.522Z,3.67
2018-07-16T01:37:13.210Z,3.57
2018-07-16T01:39:42.001Z,5.50
2018-07-16T01:42:10.650Z,6.13
2018-07-16T01:44:39.344Z,3.50
2018-07-16T01:47:08.088Z,3.53
2018-07-16T01:49:36.759Z,3.57
2018-07-16T01:52:05.463Z,3.63
2018-07-16T01:54:34.136Z,3.93
2018-07-16T01:57:02.807Z,3.50
2018-07-16T01:59:31.500Z,3.70
2018-07-16T02:02:00.174Z,3.60
2018-07-16T02:04:28.841Z,3.87
2018-07-16T02:06:57.475Z,3.87
2018-07-16T02:09:26.135Z,4.53
2018-07-16T02:11:54.807Z,4.60
2018-07-16T02:14:23.485Z,4.00
2018-07-16T02:16:52.136Z,4.00
2018-07-16T02:19:20.804Z,3.67
2018-07-16T02:21:49.540Z,3.40
2018-07-16T02:24:18.214Z,4.53
2018-07-16T02:26:46.912Z,3.80
2018-07-16T02:29:15.562Z,3.73
2018-07-16T02:31:44.314Z,4.50
2018-07-16T02:34:12.992Z,6.87
2018-07-16T02:36:41.743Z,4.17
2018-07-16T02:39:10.422Z,4.20
2018-07-16T02:41:39.073Z,4.17
2018-07-16T02:44:07.810Z,4.30
2018-07-16T02:46:36.457Z,4.30
2018-07-16T02:49:05.633Z,4.40
2018-07-16T02:51:34.266Z,5.70
2018-07-16T02:54:02.986Z,3.93
2018-07-16T02:56:31.759Z,6.07
2018-07-16T02:59:00.431Z,3.90
2018-07-16T03:01:29.125Z,4.10
2018-07-16T03:03:57.845Z,3.80
2018-07-16T03:06:26.569Z,5.07
2018-07-16T03:08:58.053Z,4.50
2018-07-16T03:11:26.826Z,4.30
2018-07-16T03:13:55.469Z,5.07
2018-07-16T03:16:24.173Z,4.43
2018-07-16T03:18:52.864Z,4.50
2018-07-16T03:21:21.553Z,5.63
2018-07-16T03:23:50.201Z,3.90
2018-07-16T03:26:18.902Z,4.00
2018-07-16T03:28:47.603Z,3.77
2018-07-16T03:31:16.243Z,4.37
2018-07-16T03:33:44.953Z,5.47
2018-07-16T03:36:13.641Z,4.07
2018-07-16T03:38:42.551Z,4.00
2018-07-16T03:41:11.191Z,3.90
2018-07-16T03:43:39.833Z,3.90
2018-07-16T03:46:08.524Z,4.20
2018-07-16T03:48:37.179Z,4.80
2018-07-16T03:51:05.980Z,3.70
2018-07-16T03:53:34.612Z,4.07
2018-07-16T03:56:03.337Z,4.13
2018-07-16T03:58:32.038Z,3.80
2018-07-16T04:01:00.364Z,5.07
2018-07-16T04:03:29.000Z,5.77
2018-07-16T04:05:57.656Z,4.60
2018-07-16T04:08:26.348Z,4.60
2018-07-16T04:10:55.018Z,6.27
2018-07-16T04:13:23.728Z,5.40
2018-07-16T04:15:52.423Z,5.37
2018-07-16T04:18:21.617Z,4.40
2018-07-16T04:20:50.825Z,4.40
2018-07-16T04:23:19.773Z,4.50
2018-07-16T04:25:48.475Z,4.47
2018-07-16T04:28:17.133Z,4.80
2018-07-16T04:30:45.897Z,5.17
2018-07-16T04:33:14.548Z,5.40
2018-07-16T04:35:43.262Z,5.17
2018-07-16T04:38:11.956Z,5.80
2018-07-16T04:40:40.691Z,5.23
2018-07-16T04:43:09.355Z,5.57
2018-07-16T04:45:38.034Z,5.73
2018-07-16T04:48:06.746Z,5.67
2018-07-16T04:50:35.426Z,8.37
2018-07-16T04:53:04.162Z,7.23
2018-07-16T04:55:32.813Z,8.23
2018-07-16T04:58:01.516Z,6.47
2018-07-16T05:00:30.200Z,6.50
2018-07-16T05:02:58.898Z,6.37
2018-07-16T05:05:27.591Z,6.10
2018-07-16T05:07:55.877Z,6.90
2018-07-16T05:10:24.575Z,6.87
2018-07-16T05:12:53.379Z,7.13
2018-07-16T05:15:22.094Z,6.97
2018-07-16T05:17:50.788Z,8.63
2018-07-16T05:20:19.548Z,7.50
2018-07-16T05:22:48.211Z,6.80
2018-07-16T05:25:16.923Z,7.33
2018-07-16T05:27:45.577Z,6.40
2018-07-16T05:30:14.282Z,5.47
2018-07-16T05:32:43.155Z,4.50
2018-07-16T05:35:11.824Z,4.40
2018-07-16T05:37:40.585Z,4.83
2018-07-16T05:40:09.290Z,5.13
2018-07-16T05:42:38.007Z,5.70
2018-07-16T05:45:06.741Z,7.57
2018-07-16T05:47:35.441Z,6.07
2018-07-16T05:50:04.180Z,5.03
2018-07-16T05:52:32.827Z,6.40
2018-07-16T05:55:01.548Z,5.10
2018-07-16T05:57:30.260Z,5.77
2018-07-16T05:59:58.971Z,5.50
2018-07-16T06:02:27.674Z,5.30
2018-07-16T06:04:55.968Z,5.20
2018-07-16T06:07:24.683Z,5.40
2018-07-16T06:09:53.400Z,5.77
2018-07-16T06:12:22.094Z,8.23
2018-07-16T06:14:50.768Z,6.80
2018-07-16T06:17:19.515Z,5.70
2018-07-16T06:19:48.321Z,6.37
2018-07-16T06:22:17.014Z,6.03
2018-07-16T06:24:45.710Z,5.97
2018-07-16T06:27:14.460Z,5.57
2018-07-16T06:29:43.140Z,8.00
2018-07-16T06:32:11.852Z,5.93
2018-07-16T06:34:40.710Z,6.90
2018-07-16T06:37:09.497Z,6.47
2018-07-16T06:39:38.397Z,5.93
2018-07-16T06:42:07.243Z,5.90
2018-07-16T06:44:35.894Z,5.40
2018-07-16T06:47:04.635Z,5.70
2018-07-16T06:49:33.353Z,5.73
2018-07-16T06:52:02.074Z,5.87
2018-07-16T06:54:30.808Z,5.30
2018-07-16T06:56:59.496Z,6.97
2018-07-16T06:59:28.387Z,5.10
2018-07-16T07:01:57.241Z,7.10
2018-07-16T07:04:25.883Z,5.33
2018-07-16T07:06:54.613Z,5.87
2018-07-16T07:09:23.311Z,4.90
2018-07-16T07:11:51.999Z,5.00
2018-07-16T07:14:20.720Z,6.57
2018-07-16T07:16:49.363Z,8.70
2018-07-16T07:19:18.070Z,4.63
2018-07-16T07:21:46.780Z,4.87
2018-07-16T07:24:15.486Z,6.23
2018-07-16T07:26:44.204Z,4.97
2018-07-16T07:29:12.910Z,5.07
2018-07-16T07:31:41.774Z,4.67
2018-07-16T07:34:10.512Z,4.00
2018-07-16T07:36:39.205Z,4.93
2018-07-16T07:39:08.496Z,4.80
2018-07-16T07:41:37.184Z,5.43
2018-07-16T07:44:05.906Z,6.83
2018-07-16T07:46:34.617Z,4.37
2018-07-16T07:49:03.326Z,14.33
2018-07-16T07:51:32.135Z,4.47
2018-07-16T07:54:00.790Z,4.53
2018-07-16T07:56:29.622Z,15.60
2018-07-16T07:58:58.279Z,4.90
2018-07-16T08:01:27.032Z,4.63
2018-07-16T08:03:55.753Z,3.67
2018-07-16T08:06:24.445Z,3.80
2018-07-16T08:08:53.110Z,3.33
2018-07-16T08:11:21.847Z,5.47
2018-07-16T08:14:53.501Z,6.53
2018-07-16T08:17:22.304Z,3.70
2018-07-16T08:19:51.058Z,3.90
2018-07-16T08:22:19.769Z,4.57
2018-07-16T08:24:48.500Z,5.93
2018-07-16T08:27:17.339Z,4.57
2018-07-16T08:29:46.030Z,4.50
2018-07-16T08:32:14.786Z,5.33
2018-07-16T08:34:43.544Z,3.13
2018-07-16T08:37:12.356Z,2.80
2018-07-16T08:39:41.075Z,2.80
2018-07-16T08:42:09.917Z,4.03
2018-07-16T08:44:38.236Z,2.90
2018-07-16T08:47:06.931Z,3.63
2018-07-16T08:49:35.265Z,2.93
2018-07-16T08:52:04.197Z,2.60
2018-07-16T08:54:32.893Z,4.93
2018-07-16T08:57:01.586Z,2.57
2018-07-16T08:59:30.301Z,2.70
2018-07-16T09:01:58.994Z,3.37
2018-07-16T09:04:27.693Z,5.10
2018-07-16T09:06:56.367Z,3.57
2018-07-16T09:09:25.063Z,4.27
2018-07-16T09:11:53.744Z,5.10
2018-07-16T09:14:22.500Z,4.07
2018-07-16T09:16:51.238Z,3.43
2018-07-16T09:19:19.972Z,3.20
2018-07-16T09:21:48.631Z,5.57
2018-07-16T09:24:17.280Z,2.80
2018-07-16T09:26:46.028Z,2.30
2018-07-16T09:29:14.704Z,9.83
2018-07-16T09:31:43.427Z,7.97
2018-07-16T09:34:12.074Z,3.03
2018-07-16T09:36:40.866Z,2.30
2018-07-16T09:39:10.230Z,2.83
2018-07-16T09:41:45.657Z,3.20
2018-07-16T09:44:14.356Z,6.42
2018-07-16T09:46:43.232Z,2.30
2018-07-16T09:49:11.926Z,2.98
2018-07-16T09:51:40.726Z,2.62
2018-07-16T09:54:09.374Z,2.62
2018-07-16T09:56:38.080Z,4.00
2018-07-16T09:59:06.788Z,5.12
2018-07-16T10:01:40.863Z,4.65
2018-07-16T10:04:09.499Z,5.28
2018-07-16T10:06:38.255Z,4.47
2018-07-16T10:09:07.637Z,2.65
2018-07-16T10:11:36.340Z,3.65
2018-07-16T10:14:05.010Z,3.58
2018-07-16T10:16:33.710Z,3.30
2018-07-16T10:19:02.992Z,2.95
2018-07-16T10:21:31.695Z,1.98
2018-07-16T10:24:00.372Z,1.87
2018-07-16T10:26:29.026Z,2.05
2018-07-16T10:28:57.743Z,2.02
2018-07-16T10:31:26.411Z,3.20
2018-07-16T10:33:55.179Z,2.20
2018-07-16T10:36:23.833Z,5.35
2018-07-16T10:38:52.518Z,1.92
2018-07-16T10:41:21.168Z,3.02
2018-07-16T10:43:49.918Z,2.62
2018-07-16T10:46:18.579Z,4.20
2018-07-16T10:48:47.321Z,2.25
2018-07-16T10:51:16.180Z,2.58
2018-07-16T10:53:44.874Z,3.45
2018-07-16T10:56:13.604Z,2.70
2018-07-16T10:58:42.367Z,2.90
2018-07-16T11:01:11.093Z,2.65
2018-07-16T11:03:39.771Z,5.87
2018-07-16T11:06:13.756Z,3.47
2018-07-16T11:08:42.605Z,2.30
2018-07-16T11:11:11.277Z,2.47
2018-07-16T11:13:39.957Z,2.17
2018-07-16T11:16:08.702Z,3.63
2018-07-16T11:18:37.371Z,2.00
2018-07-16T11:21:06.204Z,3.37
2018-07-16T11:23:35.004Z,3.27
2018-07-16T11:26:03.640Z,2.37
2018-07-16T11:28:32.323Z,13.20
2018-07-16T11:31:00.996Z,2.57
2018-07-16T11:33:29.683Z,2.67
2018-07-16T11:35:58.395Z,7.97
2018-07-16T11:38:27.056Z,4.20
2018-07-16T11:40:55.779Z,3.10
2018-07-16T11:43:24.468Z,2.23
2018-07-16T11:45:53.135Z,2.70
2018-07-16T11:48:21.879Z,30.77
2018-07-16T11:50:50.570Z,4.20
2018-07-16T11:53:19.224Z,4.40
2018-07-16T11:55:47.952Z,3.20
2018-07-16T11:58:16.637Z,3.27
2018-07-16T12:00:45.259Z,3.97
2018-07-16T12:03:14.067Z,2.03
2018-07-16T12:05:42.826Z,3.53
2018-07-16T12:08:11.526Z,5.07
2018-07-16T12:10:40.189Z,1.80
2018-07-16T12:13:08.907Z,3.90
2018-07-16T12:15:37.627Z,3.60
2018-07-16T12:18:06.315Z,1.80
2018-07-16T12:20:35.063Z,1.80
2018-07-16T12:23:03.383Z,3.37
2018-07-16T12:25:32.071Z,3.00
2018-07-16T12:28:00.930Z,1.60
2018-07-16T12:30:29.602Z,4.90
2018-07-16T12:32:58.030Z,2.80
2018-07-16T12:35:26.661Z,2.03
2018-07-16T12:37:55.406Z,3.83
2018-07-16T12:40:24.071Z,2.80
2018-07-16T12:42:52.747Z,1.97
2018-07-16T12:45:21.432Z,1.87
2018-07-16T12:47:50.102Z,2.83
2018-07-16T12:50:18.803Z,2.57
2018-07-16T12:52:47.493Z,1.90
2018-07-16T12:55:16.178Z,2.53
2018-07-16T12:57:44.902Z,1.80
2018-07-16T13:00:13.624Z,2.63
2018-07-16T13:02:42.386Z,1.60
2018-07-16T13:05:11.068Z,9.30
2018-07-16T13:07:39.771Z,1.77
2018-07-16T13:10:08.409Z,4.27
2018-07-16T13:12:37.121Z,2.80
2018-07-16T13:15:05.908Z,7.83
2018-07-16T13:17:34.620Z,4.33
2018-07-16T13:20:03.373Z,2.70
2018-07-16T13:22:32.064Z,4.13
2018-07-16T13:25:00.970Z,6.03
2018-07-16T13:27:29.312Z,4.10
2018-07-16T13:29:58.007Z,2.10
2018-07-16T13:32:26.664Z,2.63
2018-07-16T13:34:55.064Z,3.83
2018-07-16T13:37:23.707Z,2.80
2018-07-16T13:39:52.454Z,3.60
2018-07-16T13:42:21.159Z,5.07
2018-07-16T13:44:49.901Z,6.40
2018-07-16T13:47:18.671Z,1.70
2018-07-16T13:49:47.319Z,3.00
2018-07-16T13:52:15.998Z,1.90
2018-07-16T13:54:44.794Z,2.57
2018-07-16T13:57:13.415Z,4.03
2018-07-16T13:59:42.291Z,3.30
2018-07-16T14:02:11.051Z,2.33
2018-07-16T14:04:39.739Z,3.83
2018-07-16T14:07:08.437Z,3.77
2018-07-16T14:09:37.284Z,2.80
2018-07-16T14:12:06.124Z,5.80
2018-07-16T14:14:34.855Z,3.10
2018-07-16T14:17:03.571Z,1.50
2018-07-16T14:19:32.198Z,3.57
2018-07-16T14:22:00.899Z,3.93
2018-07-16T14:24:29.575Z,4.30
2018-07-16T14:26:58.308Z,2.57
2018-07-16T14:29:27.076Z,2.10
2018-07-16T14:31:55.783Z,4.30
2018-07-16T14:34:24.567Z,1.63
2018-07-16T14:36:53.264Z,9.60
2018-07-16T14:39:21.978Z,11.10
2018-07-16T14:41:50.614Z,3.00
2018-07-16T14:44:19.280Z,1.63
2018-07-16T14:46:47.614Z,1.50
2018-07-16T14:49:16.261Z,1.90
2018-07-16T14:51:44.576Z,4.13
2018-07-16T14:54:13.287Z,3.27
2018-07-16T14:56:42.020Z,6.57
2018-07-16T14:59:10.673Z,1.73
2018-07-16T15:01:39.002Z,8.17
2018-07-16T15:04:07.744Z,2.83
2018-07-16T15:06:36.392Z,1.97
2018-07-16T15:09:07.472Z,1.83
2018-07-16T15:11:36.116Z,2.30
2018-07-16T15:14:04.922Z,2.30
2018-07-16T15:16:33.533Z,2.60
2018-07-16T15:19:02.195Z,1.67
2018-07-16T15:21:31.161Z,1.30
2018-07-16T15:23:59.709Z,2.80
2018-07-16T15:26:28.419Z,5.80
2018-07-16T15:28:57.100Z,1.80
2018-07-16T15:31:25.781Z,3.50
2018-07-16T15:33:54.484Z,23.57
2018-07-16T15:36:23.178Z,3.27
2018-07-16T15:38:51.951Z,1.73
2018-07-16T15:41:20.647Z,1.57
2018-07-16T15:43:49.312Z,3.27
2018-07-16T15:46:18.038Z,1.53
2018-07-16T15:48:46.714Z,8.80
2018-07-16T15:51:15.395Z,5.30
2018-07-16T15:53:50.937Z,4.77
2018-07-16T15:56:19.484Z,1.83
2018-07-16T15:58:48.150Z,1.30
2018-07-16T16:01:16.831Z,2.50
2018-07-16T16:03:45.521Z,3.37
2018-07-16T16:06:14.155Z,2.53
2018-07-16T16:08:43.112Z,2.20
2018-07-16T16:11:11.807Z,8.47
2018-07-16T16:13:40.714Z,2.60
2018-07-16T16:16:09.418Z,1.43
2018-07-16T16:18:38.159Z,3.60
2018-07-16T16:21:07.683Z,4.07
2018-07-16T16:23:36.385Z,2.63
2018-07-16T16:26:05.236Z,2.10
2018-07-16T16:28:33.881Z,1.30
2018-07-16T16:31:02.546Z,2.73
2018-07-16T16:33:31.296Z,2.53
2018-07-16T16:36:00.068Z,1.40
2018-07-16T16:38:28.747Z,2.80
2018-07-16T16:40:57.077Z,3.27
2018-07-16T16:43:25.799Z,2.57
2018-07-16T16:45:54.504Z,1.40
2018-07-16T16:48:23.231Z,28.00
2018-07-16T16:50:51.896Z,2.13
2018-07-16T16:53:20.606Z,4.33
2018-07-16T16:55:49.282Z,3.00
2018-07-16T16:58:18.047Z,1.90
2018-07-16T17:00:46.707Z,8.07
2018-07-16T17:05:46.803Z,7.13
2018-07-16T17:08:15.504Z,6.40
2018-07-16T17:10:44.163Z,2.30
2018-07-16T17:13:12.871Z,2.47
2018-07-16T17:15:41.672Z,3.80
2018-07-16T17:18:10.354Z,4.33
2018-07-16T17:20:39.062Z,1.80
2018-07-16T17:23:07.813Z,4.83
2018-07-16T17:25:36.597Z,3.57
2018-07-16T17:28:05.354Z,3.83
2018-07-16T17:30:34.082Z,2.67
2018-07-16T17:33:02.882Z,5.47
2018-07-16T17:35:31.763Z,2.63
2018-07-16T17:38:00.553Z,2.93
2018-07-16T17:40:29.244Z,2.27
2018-07-16T17:42:58.142Z,1.90
2018-07-16T17:45:33.206Z,1.83
2018-07-16T17:48:01.923Z,3.77
2018-07-16T17:50:30.583Z,2.97
2018-07-16T17:52:59.238Z,1.63
2018-07-16T17:55:27.985Z,9.23
2018-07-16T17:57:56.643Z,4.33
2018-07-16T18:00:24.982Z,2.40
2018-07-16T18:02:53.710Z,4.47
2018-07-16T18:05:22.433Z,4.87
2018-07-16T18:07:51.094Z,4.93
2018-07-16T18:10:19.781Z,2.23
2018-07-16T18:12:48.509Z,4.30
2018-07-16T18:15:17.209Z,4.07
2018-07-16T18:17:45.982Z,1.93
2018-07-16T18:20:14.640Z,3.50
2018-07-16T18:22:43.342Z,2.87
2018-07-16T18:25:12.049Z,2.50
2018-07-16T18:27:40.878Z,17.00
2018-07-16T18:30:09.598Z,30.73
2018-07-16T18:32:37.995Z,24.17
2018-07-16T18:35:06.735Z,4.73
2018-07-16T18:37:35.518Z,6.53
2018-07-16T18:40:04.795Z,7.83
2018-07-16T18:42:33.120Z,4.83
2018-07-16T18:45:01.819Z,18.40
2018-07-16T18:47:30.554Z,13.23
2018-07-16T18:49:59.266Z,7.27
2018-07-16T18:52:27.975Z,12.73
2018-07-16T18:54:56.677Z,6.27
2018-07-16T18:57:25.420Z,5.47
2018-07-16T18:59:54.090Z,6.30
2018-07-16T19:02:22.847Z,2.87
2018-07-16T19:04:51.526Z,4.60
2018-07-16T19:07:22.901Z,3.17
2018-07-16T19:09:52.683Z,2.43
2018-07-16T19:12:21.626Z,3.00
2018-07-16T19:14:50.351Z,5.83
2018-07-16T19:17:19.078Z,12.47
2018-07-16T19:19:47.774Z,10.33
2018-07-16T19:22:16.477Z,48.03
2018-07-16T19:24:45.215Z,73.90
2018-07-16T19:27:13.949Z,57.63
2018-07-16T19:29:42.698Z,77.90
2018-07-16T19:32:11.404Z,48.07
2018-07-16T19:34:40.091Z,33.10
2018-07-16T19:37:09.024Z,31.37
2018-07-16T19:39:37.684Z,22.90
2018-07-16T19:42:06.455Z,15.30
2018-07-16T19:44:35.132Z,13.47
2018-07-16T19:47:03.857Z,20.80
2018-07-16T19:49:32.543Z,19.43
2018-07-16T19:52:01.225Z,17.27
2018-07-16T19:54:29.959Z,18.77
2018-07-16T19:56:58.686Z,14.67
2018-07-16T19:59:27.373Z,16.03
2018-07-16T20:01:56.067Z,12.43
2018-07-16T20:04:24.743Z,10.80
2018-07-16T20:06:56.150Z,11.93
2018-07-16T20:09:25.496Z,12.17
2018-07-16T20:11:54.244Z,7.17
2018-07-16T20:14:23.364Z,6.07
2018-07-16T20:16:52.218Z,8.07
2018-07-16T20:19:20.908Z,15.73
2018-07-16T20:21:49.597Z,17.43
2018-07-16T20:24:18.297Z,11.13
2018-07-16T20:26:47.229Z,10.63
2018-07-16T20:29:16.002Z,10.13
2018-07-16T20:31:44.935Z,9.03
2018-07-16T20:34:13.858Z,7.67
2018-07-16T20:36:42.581Z,6.77
2018-07-16T20:39:11.257Z,7.80
2018-07-16T20:41:39.976Z,8.80
2018-07-16T20:44:08.736Z,11.60
2018-07-16T20:46:37.403Z,9.30
2018-07-16T20:49:06.120Z,9.73
2018-07-16T20:51:34.897Z,11.33
2018-07-16T20:54:03.596Z,7.87
2018-07-16T20:56:32.298Z,5.40
2018-07-16T20:59:00.956Z,14.00
2018-07-16T21:01:29.967Z,9.70
2018-07-16T21:03:58.795Z,11.07
2018-07-16T21:06:27.662Z,12.43
2018-07-16T21:08:56.306Z,6.57
2018-07-16T21:11:25.011Z,6.47
2018-07-16T21:13:53.942Z,7.63
2018-07-16T21:16:22.835Z,10.00
2018-07-16T21:18:51.475Z,6.77
2018-07-16T21:21:20.352Z,8.17
2018-07-16T21:23:48.840Z,5.17
2018-07-16T21:26:17.533Z,6.93
2018-07-16T21:28:46.256Z,4.73
2018-07-16T21:31:14.977Z,6.17
2018-07-16T21:33:43.706Z,7.30
2018-07-16T21:36:12.381Z,5.87
2018-07-16T21:38:41.108Z,8.03
2018-07-16T21:41:09.917Z,9.53
2018-07-16T21:43:38.615Z,3.67
2018-07-16T21:46:07.354Z,4.93
2018-07-16T21:48:36.020Z,5.30
2018-07-16T21:51:04.740Z,8.30
2018-07-16T21:53:33.444Z,5.00
2018-07-16T21:56:02.162Z,5.80
2018-07-16T21:58:30.857Z,7.87
2018-07-16T22:00:59.526Z,6.43
2018-07-16T22:03:28.219Z,3.60
2018-07-16T22:05:56.535Z,4.10
2018-07-16T22:08:25.230Z,5.57
2018-07-16T22:10:53.900Z,6.03
2018-07-16T22:13:22.529Z,4.10
2018-07-16T22:15:51.240Z,4.20
2018-07-16T22:18:19.969Z,5.47
2018-07-16T22:20:48.709Z,4.30
2018-07-16T22:23:17.452Z,3.83
2018-07-16T22:25:46.113Z,4.93
2018-07-16T22:28:14.924Z,3.80
2018-07-16T22:30:44.042Z,5.37
2018-07-16T22:33:12.747Z,4.30
2018-07-16T22:35:41.517Z,5.50
2018-07-16T22:38:10.186Z,3.53
2018-07-16T22:40:38.834Z,6.07
2018-07-16T22:43:07.474Z,3.80
2018-07-16T22:45:36.191Z,5.77
2018-07-16T22:48:04.914Z,7.10
2018-07-16T22:50:33.592Z,7.37
2018-07-16T22:53:01.951Z,4.40
2018-07-16T22:55:30.613Z,4.67
2018-07-16T22:57:59.268Z,5.70
2018-07-16T23:00:27.961Z,6.13
2018-07-16T23:02:56.690Z,4.60
2018-07-16T23:05:25.392Z,3.90
2018-07-16T23:07:54.028Z,5.33
2018-07-16T23:10:25.708Z,5.13
2018-07-16T23:12:54.070Z,9.17
2018-07-16T23:15:22.772Z,7.13
2018-07-16T23:17:51.469Z,5.93
2018-07-16T23:20:20.135Z,5.87
2018-07-16T23:22:55.241Z,5.13
2018-07-16T23:25:24.047Z,4.50
2018-07-16T23:27:52.745Z,4.90
2018-07-16T23:30:21.449Z,10.63
2018-07-16T23:32:50.140Z,7.67
2018-07-16T23:35:18.832Z,5.97
2018-07-16T23:37:47.640Z,4.80
2018-07-16T23:40:16.318Z,5.67
2018-07-16T23:42:45.003Z,5.27
2018-07-16T23:45:13.714Z,6.03
2018-07-16T23:47:42.476Z,4.90
2018-07-16T23:50:11.177Z,5.87
2018-07-16T23:52:39.884Z,6.47
2018-07-16T23:55:08.596Z,6.00
2018-07-16T23:57:37.272Z,4.50
